sensor_id;sensor_type;location;lat;lon;timestamp;P1;durP1;ratioP1;P2;durP2;ratioP2
21581;SDS011;10952;50.836;4.348;2024-03-23T00:55:18;14.33;;;3.33;;
21581;SDS011;10952;50.836;4.348;2024-03-23T00:57:52;10.33;;;3.43;;
21581;SDS011;10952;50.836;4.348;2024-03-23T01:03:04;12.67;;;3.43;;
21581;SDS011;10952;50.836;4.348;2024-03-23T01:05:30;17.40;;;3.80;;
21581;SDS011;10952;50.836;4.348;2024-03-23T01:07:57;15.13;;;4.13;;
21581;SDS011;10952;50.836;4.348;2024-03-23T01:10:25;9.37;;;3.50;;
21581;SDS011;10952;50.836;4.348;2024-03-23T01:12:54;12.80;;;3.80;;
21581;SDS011;10952;50.836;4.348;2024-03-23T01:17:49;11.43;;;4.27;;
21581;SDS011;10952;50.836;4.348;2024-03-23T01:30:09;16.43;;;4.83;;
21581;SDS011;10952;50.836;4.348;2024-03-23T01:35:40;13.77;;;5.37;;
21581;SDS011;10952;50.836;4.348;2024-03-23T01:41:28;21.43;;;5.47;;
21581;SDS011;10952;50.836;4.348;2024-03-23T01:44:04;21.50;;;5.97;;
21581;SDS011;10952;50.836;4.348;2024-03-23T01:46:34;15.20;;;5.83;;
21581;SDS011;10952;50.836;4.348;2024-03-23T01:52:24;13.83;;;5.47;;
21581;SDS011;10952;50.836;4.348;2024-03-23T01:57:42;15.30;;;5.93;;
21581;SDS011;10952;50.836;4.348;2024-03-23T02:03:30;18.63;;;7.07;;
21581;SDS011;10952;50.836;4.348;2024-03-23T02:09:19;18.10;;;5.93;;
21581;SDS011;10952;50.836;4.348;2024-03-23T02:18:24;25.77;;;9.60;;
21581;SDS011;10952;50.836;4.348;2024-03-23T02:20:50;24.37;;;7.63;;
21581;SDS011;10952;50.836;4.348;2024-03-23T02:23:16;18.43;;;6.50;;
21581;SDS011;10952;50.836;4.348;2024-03-23T02:25:45;23.97;;;7.87;;
21581;SDS011;10952;50.836;4.348;2024-03-23T02:28:11;25.60;;;7.70;;
21581;SDS011;10952;50.836;4.348;2024-03-23T02:30:37;24.57;;;9.87;;
21581;SDS011;10952;50.836;4.348;2024-03-23T02:33:03;26.33;;;8.97;;
21581;SDS011;10952;50.836;4.348;2024-03-23T02:35:29;26.93;;;9.47;;
21581;SDS011;10952;50.836;4.348;2024-03-23T02:37:54;28.70;;;11.23;;
21581;SDS011;10952;50.836;4.348;2024-03-23T02:40:22;28.77;;;9.30;;
21581;SDS011;10952;50.836;4.348;2024-03-23T02:42:48;22.03;;;9.70;;
21581;SDS011;10952;50.836;4.348;2024-03-23T02:45:14;25.67;;;10.10;;
21581;SDS011;10952;50.836;4.348;2024-03-23T02:47:39;22.77;;;8.63;;
21581;SDS011;10952;50.836;4.348;2024-03-23T02:50:05;31.80;;;10.23;;
21581;SDS011;10952;50.836;4.348;2024-03-23T02:52:31;28.03;;;10.10;;
21581;SDS011;10952;50.836;4.348;2024-03-23T02:54:57;26.73;;;8.60;;
21581;SDS011;10952;50.836;4.348;2024-03-23T02:57:23;31.47;;;11.13;;
21581;SDS011;10952;50.836;4.348;2024-03-23T02:59:49;25.03;;;10.50;;
21581;SDS011;10952;50.836;4.348;2024-03-23T03:02:15;32.67;;;12.47;;
21581;SDS011;10952;50.836;4.348;2024-03-23T03:04:41;20.73;;;9.30;;
21581;SDS011;10952;50.836;4.348;2024-03-23T03:07:06;33.67;;;9.97;;
21581;SDS011;10952;50.836;4.348;2024-03-23T03:09:32;25.97;;;10.00;;
21581;SDS011;10952;50.836;4.348;2024-03-23T03:12:00;28.97;;;10.40;;
21581;SDS011;10952;50.836;4.348;2024-03-23T03:14:28;29.47;;;12.30;;
21581;SDS011;10952;50.836;4.348;2024-03-23T03:16:54;28.27;;;11.10;;
21581;SDS011;10952;50.836;4.348;2024-03-23T03:19:20;30.57;;;10.90;;
21581;SDS011;10952;50.836;4.348;2024-03-23T03:21:46;37.70;;;12.90;;
21581;SDS011;10952;50.836;4.348;2024-03-23T03:24:12;27.47;;;10.43;;
21581;SDS011;10952;50.836;4.348;2024-03-23T03:26:38;21.67;;;9.47;;
21581;SDS011;10952;50.836;4.348;2024-03-23T03:29:04;27.00;;;9.67;;
21581;SDS011;10952;50.836;4.348;2024-03-23T03:31:30;24.07;;;10.43;;
21581;SDS011;10952;50.836;4.348;2024-03-23T03:33:55;26.87;;;10.10;;
21581;SDS011;10952;50.836;4.348;2024-03-23T03:36:21;22.97;;;10.33;;
21581;SDS011;10952;50.836;4.348;2024-03-23T03:38:47;32.17;;;10.37;;
21581;SDS011;10952;50.836;4.348;2024-03-23T03:41:12;22.27;;;10.23;;
21581;SDS011;10952;50.836;4.348;2024-03-23T03:43:38;27.73;;;11.43;;
21581;SDS011;10952;50.836;4.348;2024-03-23T03:46:04;30.83;;;10.70;;
21581;SDS011;10952;50.836;4.348;2024-03-23T03:48:29;28.77;;;11.83;;
21581;SDS011;10952;50.836;4.348;2024-03-23T03:50:55;30.07;;;11.37;;
21581;SDS011;10952;50.836;4.348;2024-03-23T03:53:20;25.67;;;11.70;;
21581;SDS011;10952;50.836;4.348;2024-03-23T03:55:46;33.70;;;12.53;;
21581;SDS011;10952;50.836;4.348;2024-03-23T03:58:12;29.43;;;12.67;;
21581;SDS011;10952;50.836;4.348;2024-03-23T04:00:38;25.07;;;12.83;;
21581;SDS011;10952;50.836;4.348;2024-03-23T04:03:03;27.83;;;11.90;;
21581;SDS011;10952;50.836;4.348;2024-03-23T04:05:29;28.57;;;11.43;;
21581;SDS011;10952;50.836;4.348;2024-03-23T04:07:55;28.87;;;11.77;;
21581;SDS011;10952;50.836;4.348;2024-03-23T04:10:21;29.83;;;11.93;;
21581;SDS011;10952;50.836;4.348;2024-03-23T04:12:47;26.33;;;10.63;;
21581;SDS011;10952;50.836;4.348;2024-03-23T04:15:13;30.83;;;11.67;;
21581;SDS011;10952;50.836;4.348;2024-03-23T04:17:39;26.70;;;9.63;;
21581;SDS011;10952;50.836;4.348;2024-03-23T04:20:07;24.13;;;9.60;;
21581;SDS011;10952;50.836;4.348;2024-03-23T04:22:36;26.40;;;10.20;;
21581;SDS011;10952;50.836;4.348;2024-03-23T04:25:02;20.33;;;8.57;;
21581;SDS011;10952;50.836;4.348;2024-03-23T04:27:32;24.03;;;8.83;;
21581;SDS011;10952;50.836;4.348;2024-03-23T04:30:01;25.83;;;8.63;;
21581;SDS011;10952;50.836;4.348;2024-03-23T04:32:28;20.70;;;8.53;;
21581;SDS011;10952;50.836;4.348;2024-03-23T04:34:54;20.57;;;8.80;;
21581;SDS011;10952;50.836;4.348;2024-03-23T04:37:20;21.00;;;8.23;;
21581;SDS011;10952;50.836;4.348;2024-03-23T04:39:46;22.60;;;8.40;;
21581;SDS011;10952;50.836;4.348;2024-03-23T04:42:14;23.20;;;7.53;;
21581;SDS011;10952;50.836;4.348;2024-03-23T04:44:41;17.90;;;6.63;;
21581;SDS011;10952;50.836;4.348;2024-03-23T04:47:07;22.60;;;7.27;;
21581;SDS011;10952;50.836;4.348;2024-03-23T04:49:33;20.17;;;9.03;;
21581;SDS011;10952;50.836;4.348;2024-03-23T04:51:58;17.80;;;7.37;;
21581;SDS011;10952;50.836;4.348;2024-03-23T04:54:24;18.23;;;7.30;;
21581;SDS011;10952;50.836;4.348;2024-03-23T04:56:50;24.90;;;7.90;;
21581;SDS011;10952;50.836;4.348;2024-03-23T04:59:15;18.37;;;7.97;;
21581;SDS011;10952;50.836;4.348;2024-03-23T05:01:41;23.10;;;8.20;;
21581;SDS011;10952;50.836;4.348;2024-03-23T05:04:08;18.93;;;6.83;;
21581;SDS011;10952;50.836;4.348;2024-03-23T05:06:34;18.83;;;6.43;;
21581;SDS011;10952;50.836;4.348;2024-03-23T05:09:00;20.90;;;7.43;;
21581;SDS011;10952;50.836;4.348;2024-03-23T05:11:31;19.53;;;7.33;;
21581;SDS011;10952;50.836;4.348;2024-03-23T05:13:57;20.10;;;7.20;;
21581;SDS011;10952;50.836;4.348;2024-03-23T05:16:23;23.33;;;7.83;;
21581;SDS011;10952;50.836;4.348;2024-03-23T05:18:48;22.77;;;7.70;;
21581;SDS011;10952;50.836;4.348;2024-03-23T05:21:14;18.60;;;7.60;;
21581;SDS011;10952;50.836;4.348;2024-03-23T05:23:39;23.60;;;7.37;;
21581;SDS011;10952;50.836;4.348;2024-03-23T05:26:05;20.03;;;7.53;;
21581;SDS011;10952;50.836;4.348;2024-03-23T05:28:31;13.23;;;6.37;;
21581;SDS011;10952;50.836;4.348;2024-03-23T05:30:56;16.63;;;6.40;;
21581;SDS011;10952;50.836;4.348;2024-03-23T05:33:22;17.00;;;6.43;;
21581;SDS011;10952;50.836;4.348;2024-03-23T05:35:56;21.03;;;6.20;;
21581;SDS011;10952;50.836;4.348;2024-03-23T05:38:22;22.93;;;6.13;;
21581;SDS011;10952;50.836;4.348;2024-03-23T05:40:57;18.93;;;5.83;;
21581;SDS011;10952;50.836;4.348;2024-03-23T05:43:24;17.30;;;6.47;;
21581;SDS011;10952;50.836;4.348;2024-03-23T05:45:53;18.20;;;5.83;;
21581;SDS011;10952;50.836;4.348;2024-03-23T05:48:20;22.70;;;5.70;;
21581;SDS011;10952;50.836;4.348;2024-03-23T05:50:45;19.13;;;4.83;;
21581;SDS011;10952;50.836;4.348;2024-03-23T05:53:12;17.40;;;4.40;;
21581;SDS011;10952;50.836;4.348;2024-03-23T05:55:38;14.83;;;4.40;;
21581;SDS011;10952;50.836;4.348;2024-03-23T05:58:03;13.80;;;4.50;;
21581;SDS011;10952;50.836;4.348;2024-03-23T06:00:30;11.97;;;4.20;;
21581;SDS011;10952;50.836;4.348;2024-03-23T06:02:55;13.43;;;3.40;;
21581;SDS011;10952;50.836;4.348;2024-03-23T06:05:21;20.97;;;4.17;;
21581;SDS011;10952;50.836;4.348;2024-03-23T06:07:47;19.00;;;3.20;;
21581;SDS011;10952;50.836;4.348;2024-03-23T06:10:12;15.27;;;2.80;;
21581;SDS011;10952;50.836;4.348;2024-03-23T06:12:38;15.77;;;2.90;;
21581;SDS011;10952;50.836;4.348;2024-03-23T06:15:04;14.43;;;2.53;;
21581;SDS011;10952;50.836;4.348;2024-03-23T06:17:30;13.00;;;3.07;;
21581;SDS011;10952;50.836;4.348;2024-03-23T06:19:55;21.93;;;3.13;;
21581;SDS011;10952;50.836;4.348;2024-03-23T06:22:21;12.30;;;2.67;;
21581;SDS011;10952;50.836;4.348;2024-03-23T06:24:47;12.50;;;2.57;;
21581;SDS011;10952;50.836;4.348;2024-03-23T06:27:13;15.50;;;3.47;;
21581;SDS011;10952;50.836;4.348;2024-03-23T06:29:38;14.40;;;2.60;;
21581;SDS011;10952;50.836;4.348;2024-03-23T06:32:04;14.87;;;2.80;;
21581;SDS011;10952;50.836;4.348;2024-03-23T06:34:29;15.93;;;2.90;;
21581;SDS011;10952;50.836;4.348;2024-03-23T06:36:55;19.07;;;3.03;;
21581;SDS011;10952;50.836;4.348;2024-03-23T06:39:21;12.80;;;2.87;;
21581;SDS011;10952;50.836;4.348;2024-03-23T06:41:53;10.90;;;2.43;;
21581;SDS011;10952;50.836;4.348;2024-03-23T06:44:19;9.20;;;2.60;;
21581;SDS011;10952;50.836;4.348;2024-03-23T06:46:45;13.00;;;3.43;;
21581;SDS011;10952;50.836;4.348;2024-03-23T06:49:11;14.73;;;3.47;;
21581;SDS011;10952;50.836;4.348;2024-03-23T06:51:37;12.73;;;2.93;;
21581;SDS011;10952;50.836;4.348;2024-03-23T06:54:04;10.67;;;2.87;;
21581;SDS011;10952;50.836;4.348;2024-03-23T06:56:30;14.90;;;2.83;;
21581;SDS011;10952;50.836;4.348;2024-03-23T06:58:56;20.13;;;3.60;;
21581;SDS011;10952;50.836;4.348;2024-03-23T07:01:22;8.40;;;2.53;;
21581;SDS011;10952;50.836;4.348;2024-03-23T07:03:48;30.33;;;8.27;;
21581;SDS011;10952;50.836;4.348;2024-03-23T07:06:13;11.40;;;4.10;;
21581;SDS011;10952;50.836;4.348;2024-03-23T07:08:39;9.63;;;2.93;;
21581;SDS011;10952;50.836;4.348;2024-03-23T07:11:05;10.77;;;2.70;;
21581;SDS011;10952;50.836;4.348;2024-03-23T07:13:30;11.63;;;2.67;;
21581;SDS011;10952;50.836;4.348;2024-03-23T07:15:56;12.03;;;3.13;;
21581;SDS011;10952;50.836;4.348;2024-03-23T07:18:23;9.07;;;3.00;;
21581;SDS011;10952;50.836;4.348;2024-03-23T07:20:52;10.50;;;2.43;;
21581;SDS011;10952;50.836;4.348;2024-03-23T07:23:24;15.43;;;2.80;;
21581;SDS011;10952;50.836;4.348;2024-03-23T07:26:23;14.60;;;3.10;;
21581;SDS011;10952;50.836;4.348;2024-03-23T07:28:43;13.77;;;3.27;;
21581;SDS011;10952;50.836;4.348;2024-03-23T07:31:10;15.30;;;3.10;;
21581;SDS011;10952;50.836;4.348;2024-03-23T07:33:37;17.77;;;3.33;;
21581;SDS011;10952;50.836;4.348;2024-03-23T07:36:06;19.87;;;3.70;;
21581;SDS011;10952;50.836;4.348;2024-03-23T07:38:32;14.33;;;3.40;;
21581;SDS011;10952;50.836;4.348;2024-03-23T07:43:30;14.53;;;3.03;;
21581;SDS011;10952;50.836;4.348;2024-03-23T07:45:56;14.97;;;3.27;;
21581;SDS011;10952;50.836;4.348;2024-03-23T07:48:22;22.40;;;3.27;;
21581;SDS011;10952;50.836;4.348;2024-03-23T07:53:29;16.13;;;3.27;;
21581;SDS011;10952;50.836;4.348;2024-03-23T07:58:23;10.77;;;2.60;;
21581;SDS011;10952;50.836;4.348;2024-03-23T08:00:48;11.23;;;3.40;;
21581;SDS011;10952;50.836;4.348;2024-03-23T08:03:14;16.20;;;3.37;;
21581;SDS011;10952;50.836;4.348;2024-03-23T08:05:40;15.73;;;3.40;;
21581;SDS011;10952;50.836;4.348;2024-03-23T08:08:06;11.73;;;3.13;;
21581;SDS011;10952;50.836;4.348;2024-03-23T08:10:31;12.70;;;3.70;;
21581;SDS011;10952;50.836;4.348;2024-03-23T08:12:57;10.30;;;2.87;;
21581;SDS011;10952;50.836;4.348;2024-03-23T08:15:23;15.70;;;3.37;;
21581;SDS011;10952;50.836;4.348;2024-03-23T08:17:49;15.23;;;3.40;;
21581;SDS011;10952;50.836;4.348;2024-03-23T08:20:15;17.00;;;2.93;;
21581;SDS011;10952;50.836;4.348;2024-03-23T08:22:40;15.20;;;3.00;;
21581;SDS011;10952;50.836;4.348;2024-03-23T08:25:06;13.53;;;3.23;;
21581;SDS011;10952;50.836;4.348;2024-03-23T08:27:32;14.10;;;3.53;;
21581;SDS011;10952;50.836;4.348;2024-03-23T08:29:58;15.87;;;3.97;;
21581;SDS011;10952;50.836;4.348;2024-03-23T08:32:23;13.70;;;3.27;;
21581;SDS011;10952;50.836;4.348;2024-03-23T08:34:49;14.50;;;2.93;;
21581;SDS011;10952;50.836;4.348;2024-03-23T08:37:15;16.97;;;2.87;;
21581;SDS011;10952;50.836;4.348;2024-03-23T08:39:42;15.63;;;2.87;;
21581;SDS011;10952;50.836;4.348;2024-03-23T08:42:08;10.20;;;2.83;;
21581;SDS011;10952;50.836;4.348;2024-03-23T10:37:55;7.60;;;2.10;;
21581;SDS011;10952;50.836;4.348;2024-03-23T10:40:22;7.67;;;2.13;;
21581;SDS011;10952;50.836;4.348;2024-03-23T10:42:48;7.87;;;2.03;;
21581;SDS011;10952;50.836;4.348;2024-03-23T10:45:15;8.60;;;2.00;;
21581;SDS011;10952;50.836;4.348;2024-03-23T10:47:41;9.90;;;1.77;;
21581;SDS011;10952;50.836;4.348;2024-03-23T10:50:07;7.20;;;1.63;;
21581;SDS011;10952;50.836;4.348;2024-03-23T10:52:36;8.03;;;1.87;;
21581;SDS011;10952;50.836;4.348;2024-03-23T10:55:02;10.00;;;1.90;;
21581;SDS011;10952;50.836;4.348;2024-03-23T10:57:34;10.30;;;2.43;;
21581;SDS011;10952;50.836;4.348;2024-03-23T11:00:04;9.93;;;2.30;;
21581;SDS011;10952;50.836;4.348;2024-03-23T11:02:32;5.70;;;1.57;;
21581;SDS011;10952;50.836;4.348;2024-03-23T11:04:58;4.60;;;1.50;;
21581;SDS011;10952;50.836;4.348;2024-03-23T11:09:49;8.87;;;1.40;;
21581;SDS011;10952;50.836;4.348;2024-03-23T11:14:50;11.30;;;2.43;;
21581;SDS011;10952;50.836;4.348;2024-03-23T11:17:20;6.87;;;1.50;;
21581;SDS011;10952;50.836;4.348;2024-03-23T11:19:57;8.87;;;1.20;;
21581;SDS011;10952;50.836;4.348;2024-03-23T11:22:43;4.17;;;1.03;;
21581;SDS011;10952;50.836;4.348;2024-03-23T11:27:40;6.97;;;1.27;;
21581;SDS011;10952;50.836;4.348;2024-03-23T11:30:14;7.00;;;1.47;;
21581;SDS011;10952;50.836;4.348;2024-03-23T11:32:42;5.70;;;1.20;;
21581;SDS011;10952;50.836;4.348;2024-03-23T11:35:09;6.90;;;1.40;;
21581;SDS011;10952;50.836;4.348;2024-03-23T11:37:36;7.63;;;1.87;;
21581;SDS011;10952;50.836;4.348;2024-03-23T11:40:19;10.13;;;1.97;;
21581;SDS011;10952;50.836;4.348;2024-03-23T11:42:45;9.77;;;1.93;;
21581;SDS011;10952;50.836;4.348;2024-03-23T11:45:12;5.90;;;1.30;;
21581;SDS011;10952;50.836;4.348;2024-03-23T11:50:09;7.03;;;1.30;;
21581;SDS011;10952;50.836;4.348;2024-03-23T11:52:47;6.77;;;1.33;;
21581;SDS011;10952;50.836;4.348;2024-03-23T11:55:13;6.23;;;1.30;;
21581;SDS011;10952;50.836;4.348;2024-03-23T11:57:42;5.00;;;1.10;;
21581;SDS011;10952;50.836;4.348;2024-03-23T12:00:22;9.77;;;1.63;;
21581;SDS011;10952;50.836;4.348;2024-03-23T12:02:49;8.07;;;1.97;;
21581;SDS011;10952;50.836;4.348;2024-03-23T12:05:17;7.00;;;1.20;;
21581;SDS011;10952;50.836;4.348;2024-03-23T12:07:44;8.83;;;1.27;;
21581;SDS011;10952;50.836;4.348;2024-03-23T12:10:12;10.07;;;1.60;;
21581;SDS011;10952;50.836;4.348;2024-03-23T12:12:39;10.63;;;2.33;;
21581;SDS011;10952;50.836;4.348;2024-03-23T12:15:07;10.17;;;1.73;;
21581;SDS011;10952;50.836;4.348;2024-03-23T12:17:35;2.20;;;1.17;;
21581;SDS011;10952;50.836;4.348;2024-03-23T12:20:01;4.13;;;1.63;;
21581;SDS011;10952;50.836;4.348;2024-03-23T12:22:27;8.33;;;1.60;;
21581;SDS011;10952;50.836;4.348;2024-03-23T12:24:55;3.57;;;0.80;;
21581;SDS011;10952;50.836;4.348;2024-03-23T12:27:23;4.33;;;1.20;;
21581;SDS011;10952;50.836;4.348;2024-03-23T12:29:48;8.73;;;1.30;;
21581;SDS011;10952;50.836;4.348;2024-03-23T12:32:15;6.17;;;1.10;;
21581;SDS011;10952;50.836;4.348;2024-03-23T12:34:41;8.03;;;1.23;;
21581;SDS011;10952;50.836;4.348;2024-03-23T12:37:08;6.37;;;1.50;;
21581;SDS011;10952;50.836;4.348;2024-03-23T12:39:37;9.70;;;1.70;;
21581;SDS011;10952;50.836;4.348;2024-03-23T12:42:03;7.13;;;1.50;;
21581;SDS011;10952;50.836;4.348;2024-03-23T12:44:30;4.73;;;1.20;;
21581;SDS011;10952;50.836;4.348;2024-03-23T12:46:55;8.93;;;1.80;;
21581;SDS011;10952;50.836;4.348;2024-03-23T12:49:21;5.43;;;1.30;;
21581;SDS011;10952;50.836;4.348;2024-03-23T12:51:54;6.67;;;1.70;;
21581;SDS011;10952;50.836;4.348;2024-03-23T12:54:21;4.27;;;1.10;;
21581;SDS011;10952;50.836;4.348;2024-03-23T12:56:48;5.90;;;1.40;;
21581;SDS011;10952;50.836;4.348;2024-03-23T12:59:14;7.93;;;1.10;;
21581;SDS011;10952;50.836;4.348;2024-03-23T13:01:41;7.30;;;1.60;;
21581;SDS011;10952;50.836;4.348;2024-03-23T13:04:09;7.23;;;1.63;;
21581;SDS011;10952;50.836;4.348;2024-03-23T13:06:37;5.50;;;1.90;;
21581;SDS011;10952;50.836;4.348;2024-03-23T13:09:03;4.20;;;1.40;;
21581;SDS011;10952;50.836;4.348;2024-03-23T13:11:30;9.77;;;1.30;;
21581;SDS011;10952;50.836;4.348;2024-03-23T13:13:56;3.93;;;0.93;;
21581;SDS011;10952;50.836;4.348;2024-03-23T13:16:22;6.23;;;2.13;;
21581;SDS011;10952;50.836;4.348;2024-03-23T13:18:49;7.03;;;1.70;;
21581;SDS011;10952;50.836;4.348;2024-03-23T13:21:15;5.90;;;1.60;;
21581;SDS011;10952;50.836;4.348;2024-03-23T13:23:41;4.20;;;1.47;;
21581;SDS011;10952;50.836;4.348;2024-03-23T13:26:09;5.03;;;0.97;;
21581;SDS011;10952;50.836;4.348;2024-03-23T13:28:37;4.93;;;1.00;;
21581;SDS011;10952;50.836;4.348;2024-03-23T13:31:03;3.10;;;0.87;;
21581;SDS011;10952;50.836;4.348;2024-03-23T13:33:29;12.93;;;1.33;;
21581;SDS011;10952;50.836;4.348;2024-03-23T13:35:58;8.67;;;1.90;;
21581;SDS011;10952;50.836;4.348;2024-03-23T13:38:24;9.60;;;2.60;;
21581;SDS011;10952;50.836;4.348;2024-03-23T13:40:58;3.90;;;1.23;;
21581;SDS011;10952;50.836;4.348;2024-03-23T13:43:31;3.23;;;1.10;;
21581;SDS011;10952;50.836;4.348;2024-03-23T13:46:00;4.53;;;1.50;;
21581;SDS011;10952;50.836;4.348;2024-03-23T13:48:26;10.83;;;1.10;;
21581;SDS011;10952;50.836;4.348;2024-03-23T13:53:32;7.90;;;1.27;;
21581;SDS011;10952;50.836;4.348;2024-03-23T13:55:57;3.53;;;1.13;;
21581;SDS011;10952;50.836;4.348;2024-03-23T13:58:23;3.23;;;1.07;;
21581;SDS011;10952;50.836;4.348;2024-03-23T14:00:50;8.53;;;1.33;;
21581;SDS011;10952;50.836;4.348;2024-03-23T14:03:16;6.90;;;1.37;;
21581;SDS011;10952;50.836;4.348;2024-03-23T14:05:43;6.23;;;1.30;;
21581;SDS011;10952;50.836;4.348;2024-03-23T14:08:10;11.00;;;1.83;;
21581;SDS011;10952;50.836;4.348;2024-03-23T14:10:41;19.73;;;6.43;;
21581;SDS011;10952;50.836;4.348;2024-03-23T14:13:08;6.53;;;1.67;;
21581;SDS011;10952;50.836;4.348;2024-03-23T14:15:35;5.67;;;1.40;;
21581;SDS011;10952;50.836;4.348;2024-03-23T14:18:02;5.87;;;1.67;;
21581;SDS011;10952;50.836;4.348;2024-03-23T14:20:30;4.83;;;1.30;;
21581;SDS011;10952;50.836;4.348;2024-03-23T14:23:00;8.17;;;3.07;;
21581;SDS011;10952;50.836;4.348;2024-03-23T14:25:27;6.33;;;1.80;;
21581;SDS011;10952;50.836;4.348;2024-03-23T14:27:54;6.23;;;1.50;;
21581;SDS011;10952;50.836;4.348;2024-03-23T14:30:20;6.13;;;1.50;;
21581;SDS011;10952;50.836;4.348;2024-03-23T14:32:45;9.03;;;1.97;;
21581;SDS011;10952;50.836;4.348;2024-03-23T14:35:11;8.20;;;1.97;;
21581;SDS011;10952;50.836;4.348;2024-03-23T14:37:39;2.73;;;1.37;;
21581;SDS011;10952;50.836;4.348;2024-03-23T14:40:07;4.77;;;1.30;;
21581;SDS011;10952;50.836;4.348;2024-03-23T14:42:37;9.97;;;1.50;;
21581;SDS011;10952;50.836;4.348;2024-03-23T14:47:34;2.70;;;1.10;;
21581;SDS011;10952;50.836;4.348;2024-03-23T14:50:00;7.73;;;1.10;;
21581;SDS011;10952;50.836;4.348;2024-03-23T14:52:26;10.70;;;1.60;;
21581;SDS011;10952;50.836;4.348;2024-03-23T14:54:52;6.63;;;1.20;;
21581;SDS011;10952;50.836;4.348;2024-03-23T14:57:19;4.67;;;1.13;;
21581;SDS011;10952;50.836;4.348;2024-03-23T14:59:45;6.43;;;1.53;;
21581;SDS011;10952;50.836;4.348;2024-03-23T15:02:13;4.17;;;1.40;;
21581;SDS011;10952;50.836;4.348;2024-03-23T15:04:38;9.13;;;1.20;;
21581;SDS011;10952;50.836;4.348;2024-03-23T15:07:07;6.80;;;1.93;;
21581;SDS011;10952;50.836;4.348;2024-03-23T15:09:33;5.47;;;1.33;;
21581;SDS011;10952;50.836;4.348;2024-03-23T15:11:59;8.80;;;1.67;;
21581;SDS011;10952;50.836;4.348;2024-03-23T15:14:27;4.03;;;1.70;;
21581;SDS011;10952;50.836;4.348;2024-03-23T15:16:56;8.60;;;1.60;;
21581;SDS011;10952;50.836;4.348;2024-03-23T15:19:22;10.17;;;1.50;;
21581;SDS011;10952;50.836;4.348;2024-03-23T15:21:48;9.40;;;1.90;;
21581;SDS011;10952;50.836;4.348;2024-03-23T15:24:15;6.07;;;1.50;;
21581;SDS011;10952;50.836;4.348;2024-03-23T15:26:40;8.53;;;1.70;;
21581;SDS011;10952;50.836;4.348;2024-03-23T15:29:07;7.67;;;1.43;;
21581;SDS011;10952;50.836;4.348;2024-03-23T15:31:37;9.13;;;1.60;;
21581;SDS011;10952;50.836;4.348;2024-03-23T15:34:03;6.20;;;1.03;;
21581;SDS011;10952;50.836;4.348;2024-03-23T15:36:32;9.00;;;1.57;;
21581;SDS011;10952;50.836;4.348;2024-03-23T15:38:58;5.00;;;1.43;;
21581;SDS011;10952;50.836;4.348;2024-03-23T15:41:24;6.60;;;1.73;;
21581;SDS011;10952;50.836;4.348;2024-03-23T15:43:50;7.90;;;1.50;;
21581;SDS011;10952;50.836;4.348;2024-03-23T15:46:20;8.17;;;2.30;;
21581;SDS011;10952;50.836;4.348;2024-03-23T15:48:53;8.43;;;1.70;;
21581;SDS011;10952;50.836;4.348;2024-03-23T15:51:19;9.97;;;2.00;;
21581;SDS011;10952;50.836;4.348;2024-03-23T15:53:45;9.05;;;1.70;;
21581;SDS011;10952;50.836;4.348;2024-03-23T15:56:11;9.00;;;1.70;;
21581;SDS011;10952;50.836;4.348;2024-03-23T15:58:38;8.10;;;1.70;;
21581;SDS011;10952;50.836;4.348;2024-03-23T16:01:07;8.07;;;1.70;;
21581;SDS011;10952;50.836;4.348;2024-03-23T16:03:40;7.23;;;2.10;;
21581;SDS011;10952;50.836;4.348;2024-03-23T16:06:12;10.53;;;2.57;;
21581;SDS011;10952;50.836;4.348;2024-03-23T16:08:49;9.53;;;1.73;;
21581;SDS011;10952;50.836;4.348;2024-03-23T16:11:15;6.53;;;1.50;;
21581;SDS011;10952;50.836;4.348;2024-03-23T16:13:43;6.60;;;1.80;;
21581;SDS011;10952;50.836;4.348;2024-03-23T16:16:09;5.83;;;1.30;;
21581;SDS011;10952;50.836;4.348;2024-03-23T16:18:38;7.13;;;1.80;;
21581;SDS011;10952;50.836;4.348;2024-03-23T16:21:07;8.70;;;1.20;;
21581;SDS011;10952;50.836;4.348;2024-03-23T16:23:34;5.23;;;1.10;;
21581;SDS011;10952;50.836;4.348;2024-03-23T16:26:02;4.97;;;1.40;;
21581;SDS011;10952;50.836;4.348;2024-03-23T16:28:29;9.00;;;2.03;;
21581;SDS011;10952;50.836;4.348;2024-03-23T16:33:30;7.50;;;2.13;;
21581;SDS011;10952;50.836;4.348;2024-03-23T16:38:35;7.13;;;1.37;;
21581;SDS011;10952;50.836;4.348;2024-03-23T16:41:04;8.17;;;1.90;;
21581;SDS011;10952;50.836;4.348;2024-03-23T16:43:31;8.27;;;1.27;;
21581;SDS011;10952;50.836;4.348;2024-03-23T16:45:58;4.50;;;1.67;;
21581;SDS011;10952;50.836;4.348;2024-03-23T16:48:28;7.57;;;1.63;;
21581;SDS011;10952;50.836;4.348;2024-03-23T16:50:58;5.10;;;1.37;;
21581;SDS011;10952;50.836;4.348;2024-03-23T16:53:25;6.60;;;1.33;;
21581;SDS011;10952;50.836;4.348;2024-03-23T16:55:56;7.33;;;1.50;;
21581;SDS011;10952;50.836;4.348;2024-03-23T16:58:30;6.30;;;1.50;;
21581;SDS011;10952;50.836;4.348;2024-03-23T17:00:58;8.90;;;1.30;;
21581;SDS011;10952;50.836;4.348;2024-03-23T17:03:38;9.07;;;1.83;;
21581;SDS011;10952;50.836;4.348;2024-03-23T17:06:08;5.87;;;1.20;;
21581;SDS011;10952;50.836;4.348;2024-03-23T17:08:37;6.73;;;1.83;;
21581;SDS011;10952;50.836;4.348;2024-03-23T17:11:03;10.93;;;2.27;;
21581;SDS011;10952;50.836;4.348;2024-03-23T17:13:32;6.80;;;1.30;;
21581;SDS011;10952;50.836;4.348;2024-03-23T17:16:02;6.63;;;1.80;;
21581;SDS011;10952;50.836;4.348;2024-03-23T17:18:29;7.87;;;1.33;;
21581;SDS011;10952;50.836;4.348;2024-03-23T17:20:56;7.87;;;1.83;;
21581;SDS011;10952;50.836;4.348;2024-03-23T17:23:27;9.37;;;2.13;;
21581;SDS011;10952;50.836;4.348;2024-03-23T17:25:55;11.77;;;2.63;;
21581;SDS011;10952;50.836;4.348;2024-03-23T17:28:22;9.13;;;2.20;;
21581;SDS011;10952;50.836;4.348;2024-03-23T17:30:48;10.17;;;2.97;;
21581;SDS011;10952;50.836;4.348;2024-03-23T17:33:14;7.43;;;2.47;;
21581;SDS011;10952;50.836;4.348;2024-03-23T17:35:41;11.83;;;2.37;;
21581;SDS011;10952;50.836;4.348;2024-03-23T17:38:12;5.87;;;1.50;;
21581;SDS011;10952;50.836;4.348;2024-03-23T17:40:38;5.07;;;1.70;;
21581;SDS011;10952;50.836;4.348;2024-03-23T17:43:07;7.47;;;1.57;;
21581;SDS011;10952;50.836;4.348;2024-03-23T17:45:34;9.50;;;1.83;;
21581;SDS011;10952;50.836;4.348;2024-03-23T17:48:01;9.70;;;3.03;;
21581;SDS011;10952;50.836;4.348;2024-03-23T17:50:29;13.27;;;3.13;;
21581;SDS011;10952;50.836;4.348;2024-03-23T17:52:56;17.77;;;3.20;;
21581;SDS011;10952;50.836;4.348;2024-03-23T17:55:22;12.27;;;3.73;;
21581;SDS011;10952;50.836;4.348;2024-03-23T17:57:48;14.10;;;3.40;;
21581;SDS011;10952;50.836;4.348;2024-03-23T18:00:14;10.67;;;2.67;;
21581;SDS011;10952;50.836;4.348;2024-03-23T18:02:40;10.73;;;2.13;;
21581;SDS011;10952;50.836;4.348;2024-03-23T18:07:36;9.67;;;2.83;;
21581;SDS011;10952;50.836;4.348;2024-03-23T18:10:03;7.63;;;2.33;;
21581;SDS011;10952;50.836;4.348;2024-03-23T18:12:29;4.80;;;1.73;;
21581;SDS011;10952;50.836;4.348;2024-03-23T18:14:54;5.60;;;2.07;;
21581;SDS011;10952;50.836;4.348;2024-03-23T18:17:22;6.20;;;2.10;;
21581;SDS011;10952;50.836;4.348;2024-03-23T18:19:48;6.77;;;2.43;;
21581;SDS011;10952;50.836;4.348;2024-03-23T18:22:13;5.93;;;2.20;;
21581;SDS011;10952;50.836;4.348;2024-03-23T18:24:39;10.53;;;3.50;;
21581;SDS011;10952;50.836;4.348;2024-03-23T18:27:04;4.90;;;2.80;;
21581;SDS011;10952;50.836;4.348;2024-03-23T18:29:31;9.10;;;3.60;;
21581;SDS011;10952;50.836;4.348;2024-03-23T18:32:02;12.20;;;5.07;;
21581;SDS011;10952;50.836;4.348;2024-03-23T18:34:29;8.87;;;3.37;;
21581;SDS011;10952;50.836;4.348;2024-03-23T18:36:54;11.60;;;4.83;;